sensor_id;sensor_type;location;lat;lon;timestamp;pressure;altitude;pressure_sealevel;temperature;humidity
67987;BME280;54767;53.800;15.956;2023-02-01T00:01:31;99040.07;;;3.02;82.97
67987;BME280;54767;53.800;15.956;2023-02-01T00:03:59;99033.52;;;3.04;82.88
67987;BME280;54767;53.800;15.956;2023-02-01T00:06:27;99032.55;;;3.07;82.91
67987;BME280;54767;53.800;15.956;2023-02-01T00:08:56;99030.46;;;3.09;83.32
67987;BME280;54767;53.800;15.956;2023-02-01T00:11:24;99031.86;;;3.09;83.23
67987;BME280;54767;53.800;15.956;2023-02-01T00:13:53;99030.98;;;3.09;83.13
67987;BME280;54767;53.800;15.956;2023-02-01T00:16:26;99035.68;;;3.11;83.02
67987;BME280;54767;53.800;15.956;2023-02-01T00:19:03;99040.03;;;3.13;83.00
67987;BME280;54767;53.800;15.956;2023-02-01T00:21:33;99042.47;;;3.15;83.10
67987;BME280;54767;53.800;15.956;2023-02-01T00:24:05;99038.35;;;3.16;82.80
67987;BME280;54767;53.800;15.956;2023-02-01T00:26:36;99037.30;;;3.16;82.75
67987;BME280;54767;53.800;15.956;2023-02-01T00:29:06;99043.49;;;3.14;83.08
67987;BME280;54767;53.800;15.956;2023-02-01T00:31:37;99039.52;;;3.12;83.12
67987;BME280;54767;53.800;15.956;2023-02-01T00:34:05;99047.61;;;3.11;82.98
67987;BME280;54767;53.800;15.956;2023-02-01T00:36:34;99044.33;;;3.11;82.86
67987;BME280;54767;53.800;15.956;2023-02-01T00:39:02;99047.81;;;3.13;82.96
67987;BME280;54767;53.800;15.956;2023-02-01T00:41:30;99046.65;;;3.16;82.94
67987;BME280;54767;53.800;15.956;2023-02-01T00:43:59;99040.78;;;3.18;82.83
67987;BME280;54767;53.800;15.956;2023-02-01T00:46:28;99043.39;;;3.20;82.97
67987;BME280;54767;53.800;15.956;2023-02-01T00:48:57;99036.14;;;3.20;82.81
67987;BME280;54767;53.800;15.956;2023-02-01T00:51:27;99037.17;;;3.19;82.90
67987;BME280;54767;53.800;15.956;2023-02-01T00:53:56;99034.39;;;3.18;82.67
67987;BME280;54767;53.800;15.956;2023-02-01T00:56:24;99027.63;;;3.16;82.67
67987;BME280;54767;53.800;15.956;2023-02-01T00:58:55;99032.46;;;3.16;82.57
67987;BME280;54767;53.800;15.956;2023-02-01T01:01:26;99040.75;;;3.15;82.66
67987;BME280;54767;53.800;15.956;2023-02-01T01:03:57;99040.57;;;3.15;82.58
67987;BME280;54767;53.800;15.956;2023-02-01T01:06:29;99037.30;;;3.15;82.42
67987;BME280;54767;53.800;15.956;2023-02-01T01:09:00;99029.88;;;3.16;82.49
67987;BME280;54767;53.800;15.956;2023-02-01T01:11:33;99031.56;;;3.13;82.27
67987;BME280;54767;53.800;15.956;2023-02-01T01:14:02;99031.88;;;3.10;82.28
67987;BME280;54767;53.800;15.956;2023-02-01T01:16:32;99027.71;;;3.09;82.34
67987;BME280;54767;53.800;15.956;2023-02-01T01:19:01;99029.77;;;3.08;82.28
67987;BME280;54767;53.800;15.956;2023-02-01T01:21:30;99028.39;;;3.08;82.29
67987;BME280;54767;53.800;15.956;2023-02-01T01:23:58;99032.05;;;3.09;82.39
67987;BME280;54767;53.800;15.956;2023-02-01T01:26:28;99033.79;;;3.11;82.30
67987;BME280;54767;53.800;15.956;2023-02-01T01:28:58;99023.27;;;3.13;82.22
67987;BME280;54767;53.800;15.956;2023-02-01T01:31:27;99019.98;;;3.13;82.22
67987;BME280;54767;53.800;15.956;2023-02-01T01:33:58;99014.62;;;3.12;82.14
67987;BME280;54767;53.800;15.956;2023-02-01T01:36:27;99004.77;;;3.13;82.27
67987;BME280;54767;53.800;15.956;2023-02-01T01:38:56;99005.45;;;3.13;82.21
67987;BME280;54767;53.800;15.956;2023-02-01T01:41:28;98999.73;;;3.12;82.24
67987;BME280;54767;53.800;15.956;2023-02-01T01:47:14;98998.00;;;3.11;81.98
67987;BME280;54767;53.800;15.956;2023-02-01T01:49:44;99002.81;;;3.08;82.02
67987;BME280;54767;53.800;15.956;2023-02-01T01:52:13;99010.76;;;3.08;82.10
67987;BME280;54767;53.800;15.956;2023-02-01T01:54:45;99004.54;;;3.07;82.11
67987;BME280;54767;53.800;15.956;2023-02-01T01:57:18;99003.66;;;3.08;82.11
67987;BME280;54767;53.800;15.956;2023-02-01T01:59:53;98999.02;;;3.09;82.04
67987;BME280;54767;53.800;15.956;2023-02-01T02:02:23;99003.16;;;3.09;82.01
67987;BME280;54767;53.800;15.956;2023-02-01T02:04:53;99004.23;;;3.10;82.31
67987;BME280;54767;53.800;15.956;2023-02-01T02:07:26;99000.24;;;3.11;82.09
67987;BME280;54767;53.800;15.956;2023-02-01T02:09:56;98999.71;;;3.09;81.95
67987;BME280;54767;53.800;15.956;2023-02-01T02:12:28;99006.61;;;3.07;81.86
67987;BME280;54767;53.800;15.956;2023-02-01T02:14:57;99005.74;;;3.07;82.28
67987;BME280;54767;53.800;15.956;2023-02-01T02:17:58;99005.41;;;3.09;82.14
67987;BME280;54767;53.800;15.956;2023-02-01T02:29:26;98996.27;;;3.10;82.00
67987;BME280;54767;53.800;15.956;2023-02-01T02:37:42;98998.38;;;3.14;82.00
67987;BME280;54767;53.800;15.956;2023-02-01T02:40:21;99003.42;;;3.16;82.13
67987;BME280;54767;53.800;15.956;2023-02-01T02:43:11;99005.34;;;3.17;81.82
67987;BME280;54767;53.800;15.956;2023-02-01T02:46:04;98994.27;;;3.17;82.04
67987;BME280;54767;53.800;15.956;2023-02-01T02:49:15;98990.80;;;3.17;82.05
67987;BME280;54767;53.800;15.956;2023-02-01T02:51:56;98979.91;;;3.16;81.85
67987;BME280;54767;53.800;15.956;2023-02-01T02:54:47;98983.55;;;3.17;82.13
67987;BME280;54767;53.800;15.956;2023-02-01T03:00:12;98993.06;;;3.17;81.92
67987;BME280;54767;53.800;15.956;2023-02-01T03:03:01;98990.98;;;3.16;82.09
67987;BME280;54767;53.800;15.956;2023-02-01T03:05:49;99001.00;;;3.16;82.07
67987;BME280;54767;53.800;15.956;2023-02-01T03:08:26;98997.38;;;3.16;82.23
67987;BME280;54767;53.800;15.956;2023-02-01T03:11:06;98999.11;;;3.17;82.09
67987;BME280;54767;53.800;15.956;2023-02-01T03:16:31;99002.42;;;3.19;81.95
67987;BME280;54767;53.800;15.956;2023-02-01T03:19:27;99011.23;;;3.19;81.98
67987;BME280;54767;53.800;15.956;2023-02-01T03:22:02;99010.00;;;3.18;82.12
67987;BME280;54767;53.800;15.956;2023-02-01T03:24:36;99003.61;;;3.17;82.30
67987;BME280;54767;53.800;15.956;2023-02-01T03:27:30;99011.40;;;3.18;82.15
67987;BME280;54767;53.800;15.956;2023-02-01T03:30:21;99014.88;;;3.21;82.06
67987;BME280;54767;53.800;15.956;2023-02-01T03:32:57;99022.52;;;3.22;81.93
67987;BME280;54767;53.800;15.956;2023-02-01T03:38:36;99020.28;;;3.24;82.13
67987;BME280;54767;53.800;15.956;2023-02-01T03:41:27;99022.02;;;3.25;82.01
67987;BME280;54767;53.800;15.956;2023-02-01T03:44:18;99026.36;;;3.24;81.67
67987;BME280;54767;53.800;15.956;2023-02-01T03:47:16;99020.30;;;3.25;81.98
67987;BME280;54767;53.800;15.956;2023-02-01T03:50:15;99020.65;;;3.25;82.22
67987;BME280;54767;53.800;15.956;2023-02-01T03:52:50;99022.06;;;3.28;82.13
67987;BME280;54767;53.800;15.956;2023-02-01T03:55:22;99016.55;;;3.30;81.82
67987;BME280;54767;53.800;15.956;2023-02-01T03:58:14;99027.80;;;3.30;82.09
67987;BME280;54767;53.800;15.956;2023-02-01T04:00:49;99029.34;;;3.29;81.89
67987;BME280;54767;53.800;15.956;2023-02-01T04:03:18;99024.67;;;3.29;81.83
67987;BME280;54767;53.800;15.956;2023-02-01T04:05:50;99027.95;;;3.30;81.91
67987;BME280;54767;53.800;15.956;2023-02-01T04:08:22;99022.45;;;3.32;81.97
67987;BME280;54767;53.800;15.956;2023-02-01T04:10:51;99024.55;;;3.34;81.68
67987;BME280;54767;53.800;15.956;2023-02-01T04:13:19;99025.23;;;3.35;81.75
67987;BME280;54767;53.800;15.956;2023-02-01T04:15:47;99015.57;;;3.36;81.64
67987;BME280;54767;53.800;15.956;2023-02-01T04:18:18;99013.51;;;3.36;81.95
67987;BME280;54767;53.800;15.956;2023-02-01T04:20:46;99014.19;;;3.36;81.81
67987;BME280;54767;53.800;15.956;2023-02-01T04:23:14;99014.52;;;3.35;81.73
67987;BME280;54767;53.800;15.956;2023-02-01T04:25:43;99013.48;;;3.35;81.80
67987;BME280;54767;53.800;15.956;2023-02-01T04:28:12;99015.23;;;3.35;81.62
67987;BME280;54767;53.800;15.956;2023-02-01T04:30:40;99017.15;;;3.37;81.58
67987;BME280;54767;53.800;15.956;2023-02-01T04:33:09;99019.74;;;3.37;81.70
67987;BME280;54767;53.800;15.956;2023-02-01T04:35:42;99010.24;;;3.38;81.57
67987;BME280;54767;53.800;15.956;2023-02-01T04:38:10;99012.14;;;3.37;81.49
67987;BME280;54767;53.800;15.956;2023-02-01T04:40:38;99013.52;;;3.37;81.80
67987;BME280;54767;53.800;15.956;2023-02-01T04:43:06;99011.96;;;3.37;81.65
67987;BME280;54767;53.800;15.956;2023-02-01T04:45:36;99019.95;;;3.39;81.55
67987;BME280;54767;53.800;15.956;2023-02-01T04:48:04;99017.88;;;3.41;81.27
67987;BME280;54767;53.800;15.956;2023-02-01T04:50:33;99012.20;;;3.43;81.61
67987;BME280;54767;53.800;15.956;2023-02-01T04:53:01;99018.96;;;3.45;81.40
67987;BME280;54767;53.800;15.956;2023-02-01T04:55:29;99015.48;;;3.44;81.45
67987;BME280;54767;53.800;15.956;2023-02-01T04:57:58;99023.08;;;3.42;81.23
67987;BME280;54767;53.800;15.956;2023-02-01T05:00:27;99026.35;;;3.41;81.62
67987;BME280;54767;53.800;15.956;2023-02-01T05:02:55;99019.42;;;3.40;81.23
67987;BME280;54767;53.800;15.956;2023-02-01T05:05:23;99022.20;;;3.40;81.26
67987;BME280;54767;53.800;15.956;2023-02-01T05:07:52;99021.53;;;3.42;81.37
67987;BME280;54767;53.800;15.956;2023-02-01T05:10:21;99014.27;;;3.43;81.29
67987;BME280;54767;53.800;15.956;2023-02-01T05:12:50;99021.05;;;3.45;81.21
67987;BME280;54767;53.800;15.956;2023-02-01T05:15:37;99020.52;;;3.44;81.12
67987;BME280;54767;53.800;15.956;2023-02-01T05:18:05;99016.86;;;3.43;81.12
67987;BME280;54767;53.800;15.956;2023-02-01T05:20:34;99014.09;;;3.41;81.29
67987;BME280;54767;53.800;15.956;2023-02-01T05:23:02;99014.42;;;3.41;81.13
67987;BME280;54767;53.800;15.956;2023-02-01T05:25:30;99015.83;;;3.42;81.38
67987;BME280;54767;53.800;15.956;2023-02-01T05:27:58;99022.42;;;3.45;81.22
67987;BME280;54767;53.800;15.956;2023-02-01T05:30:27;99026.58;;;3.46;80.86
67987;BME280;54767;53.800;15.956;2023-02-01T05:32:55;99033.66;;;3.45;80.92
67987;BME280;54767;53.800;15.956;2023-02-01T05:35:23;99018.77;;;3.42;81.38
67987;BME280;54767;53.800;15.956;2023-02-01T05:37:52;99019.95;;;3.40;81.09
67987;BME280;54767;53.800;15.956;2023-02-01T05:40:20;99025.67;;;3.42;81.10
67987;BME280;54767;53.800;15.956;2023-02-01T05:42:49;99025.67;;;3.41;81.18
67987;BME280;54767;53.800;15.956;2023-02-01T05:45:17;99023.95;;;3.42;81.15
67987;BME280;54767;53.800;15.956;2023-02-01T05:47:45;99024.83;;;3.43;80.82
67987;BME280;54767;53.800;15.956;2023-02-01T05:50:13;99023.09;;;3.43;81.28
67987;BME280;54767;53.800;15.956;2023-02-01T05:52:42;99022.23;;;3.43;80.93
67987;BME280;54767;53.800;15.956;2023-02-01T05:55:10;99023.44;;;3.42;81.25
67987;BME280;54767;53.800;15.956;2023-02-01T05:57:39;99017.36;;;3.41;80.97
67987;BME280;54767;53.800;15.956;2023-02-01T06:00:08;99018.39;;;3.40;81.01
67987;BME280;54767;53.800;15.956;2023-02-01T06:02:37;99010.10;;;3.42;81.05
67987;BME280;54767;53.800;15.956;2023-02-01T06:05:06;99017.37;;;3.41;81.03
67987;BME280;54767;53.800;15.956;2023-02-01T06:07:34;99019.13;;;3.44;80.97
67987;BME280;54767;53.800;15.956;2023-02-01T06:10:02;99020.02;;;3.46;81.08
67987;BME280;54767;53.800;15.956;2023-02-01T06:12:32;99023.33;;;3.47;80.97
67987;BME280;54767;53.800;15.956;2023-02-01T06:15:00;99022.97;;;3.47;80.94
67987;BME280;54767;53.800;15.956;2023-02-01T06:17:28;99022.45;;;3.47;80.92
67987;BME280;54767;53.800;15.956;2023-02-01T06:19:57;99025.02;;;3.46;81.03
67987;BME280;54767;53.800;15.956;2023-02-01T06:22:25;99027.63;;;3.46;80.99
67987;BME280;54767;53.800;15.956;2023-02-01T06:24:53;99028.85;;;3.47;80.97
67987;BME280;54767;53.800;15.956;2023-02-01T06:27:21;99028.34;;;3.49;80.89
67987;BME280;54767;53.800;15.956;2023-02-01T06:29:50;99021.96;;;3.50;80.83
67987;BME280;54767;53.800;15.956;2023-02-01T06:32:18;99019.54;;;3.49;80.66
67987;BME280;54767;53.800;15.956;2023-02-01T06:34:46;99015.88;;;3.47;80.84
67987;BME280;54767;53.800;15.956;2023-02-01T06:37:15;99017.92;;;3.45;80.66
67987;BME280;54767;53.800;15.956;2023-02-01T06:39:43;99017.03;;;3.43;80.85
67987;BME280;54767;53.800;15.956;2023-02-01T06:42:11;99014.95;;;3.41;80.77
67987;BME280;54767;53.800;15.956;2023-02-01T06:44:40;99019.43;;;3.41;80.54
67987;BME280;54767;53.800;15.956;2023-02-01T06:47:08;99022.23;;;3.42;80.73
67987;BME280;54767;53.800;15.956;2023-02-01T06:49:37;99021.38;;;3.44;80.58
67987;BME280;54767;53.800;15.956;2023-02-01T06:52:05;99024.33;;;3.45;80.64
67987;BME280;54767;53.800;15.956;2023-02-01T06:54:33;99025.02;;;3.45;80.84
67987;BME280;54767;53.800;15.956;2023-02-01T06:57:03;99033.48;;;3.45;80.76
67987;BME280;54767;53.800;15.956;2023-02-01T06:59:31;99033.13;;;3.43;80.78
67987;BME280;54767;53.800;15.956;2023-02-01T07:01:59;99028.11;;;3.43;80.86
67987;BME280;54767;53.800;15.956;2023-02-01T07:04:28;99032.43;;;3.44;80.84
67987;BME280;54767;53.800;15.956;2023-02-01T07:06:56;99035.23;;;3.45;80.81
67987;BME280;54767;53.800;15.956;2023-02-01T07:09:24;99042.15;;;3.47;80.85
67987;BME280;54767;53.800;15.956;2023-02-01T07:11:53;99044.08;;;3.48;80.68
67987;BME280;54767;53.800;15.956;2023-02-01T07:14:21;99044.44;;;3.50;80.81
67987;BME280;54767;53.800;15.956;2023-02-01T07:16:49;99041.16;;;3.51;80.89
67987;BME280;54767;53.800;15.956;2023-02-01T07:19:18;99044.98;;;3.51;80.92
67987;BME280;54767;53.800;15.956;2023-02-01T07:21:46;99045.49;;;3.50;80.98
67987;BME280;54767;53.800;15.956;2023-02-01T07:24:15;99047.73;;;3.50;81.10
67987;BME280;54767;53.800;15.956;2023-02-01T07:26:43;99041.70;;;3.51;80.86
67987;BME280;54767;53.800;15.956;2023-02-01T07:29:11;99046.02;;;3.53;80.91
67987;BME280;54767;53.800;15.956;2023-02-01T07:31:40;99048.45;;;3.53;80.89
67987;BME280;54767;53.800;15.956;2023-02-01T07:34:08;99050.73;;;3.55;81.10
67987;BME280;54767;53.800;15.956;2023-02-01T07:36:36;99048.48;;;3.56;81.14
67987;BME280;54767;53.800;15.956;2023-02-01T07:39:05;99039.34;;;3.58;80.94
67987;BME280;54767;53.800;15.956;2023-02-01T07:41:33;99039.69;;;3.59;81.09
67987;BME280;54767;53.800;15.956;2023-02-01T07:44:01;99028.95;;;3.58;81.02
67987;BME280;54767;53.800;15.956;2023-02-01T07:46:30;99032.91;;;3.55;80.86
67987;BME280;54767;53.800;15.956;2023-02-01T07:48:58;99035.50;;;3.55;81.03
67987;BME280;54767;53.800;15.956;2023-02-01T07:51:27;99041.73;;;3.56;80.84
67987;BME280;54767;53.800;15.956;2023-02-01T07:53:55;99042.45;;;3.58;80.80
67987;BME280;54767;53.800;15.956;2023-02-01T07:56:24;99040.58;;;3.59;80.78
67987;BME280;54767;53.800;15.956;2023-02-01T07:58:54;99041.79;;;3.60;80.50
67987;BME280;54767;53.800;15.956;2023-02-01T08:01:28;99041.06;;;3.58;81.05
67987;BME280;54767;53.800;15.956;2023-02-01T08:03:59;99036.05;;;3.57;80.61
67987;BME280;54767;53.800;15.956;2023-02-01T08:06:31;99033.29;;;3.58;80.70
67987;BME280;54767;53.800;15.956;2023-02-01T08:09:01;99027.05;;;3.58;80.75
67987;BME280;54767;53.800;15.956;2023-02-01T08:11:30;99029.85;;;3.59;80.84
67987;BME280;54767;53.800;15.956;2023-02-01T08:13:59;99024.84;;;3.60;80.84
67987;BME280;54767;53.800;15.956;2023-02-01T08:16:28;99024.32;;;3.60;80.77
67987;BME280;54767;53.800;15.956;2023-02-01T08:18:56;99022.06;;;3.60;80.88
67987;BME280;54767;53.800;15.956;2023-02-01T08:21:27;99021.71;;;3.60;81.15
67987;BME280;54767;53.800;15.956;2023-02-01T08:24:08;99022.41;;;3.61;81.11
67987;BME280;54767;53.800;15.956;2023-02-01T08:26:37;99025.71;;;3.62;81.07
67987;BME280;54767;53.800;15.956;2023-02-01T08:29:07;99022.27;;;3.62;81.12
67987;BME280;54767;53.800;15.956;2023-02-01T08:31:37;99025.90;;;3.63;80.87
67987;BME280;54767;53.800;15.956;2023-02-01T08:34:09;99021.92;;;3.64;81.05
67987;BME280;54767;53.800;15.956;2023-02-01T08:36:37;99019.50;;;3.62;80.90
67987;BME280;54767;53.800;15.956;2023-02-01T08:39:06;99021.92;;;3.63;81.01
67987;BME280;54767;53.800;15.956;2023-02-01T08:41:37;99017.95;;;3.64;81.13
67987;BME280;54767;53.800;15.956;2023-02-01T08:44:06;99016.92;;;3.65;81.06
67987;BME280;54767;53.800;15.956;2023-02-01T08:46:34;99010.70;;;3.66;81.18
67987;BME280;54767;53.800;15.956;2023-02-01T08:49:02;99012.60;;;3.66;81.23
67987;BME280;54767;53.800;15.956;2023-02-01T08:51:30;99012.26;;;3.66;80.95
67987;BME280;54767;53.800;15.956;2023-02-01T08:53:59;99009.30;;;3.64;81.14
67987;BME280;54767;53.800;15.956;2023-02-01T08:56:28;99003.93;;;3.64;81.21
67987;BME280;54767;53.800;15.956;2023-02-01T08:58:57;99009.32;;;3.65;81.19
67987;BME280;54767;53.800;15.956;2023-02-01T09:01:25;99005.52;;;3.67;81.59
67987;BME280;54767;53.800;15.956;2023-02-01T09:03:54;99008.31;;;3.70;81.09
67987;BME280;54767;53.800;15.956;2023-02-01T09:06:22;99010.24;;;3.71;81.41
67987;BME280;54767;53.800;15.956;2023-02-01T09:08:51;99015.80;;;3.73;81.16
67987;BME280;54767;53.800;15.956;2023-02-01T09:11:19;99010.41;;;3.72;81.25
67987;BME280;54767;53.800;15.956;2023-02-01T09:13:48;99014.94;;;3.73;80.96
67987;BME280;54767;53.800;15.956;2023-02-01T09:16:17;99015.64;;;3.74;81.01
67987;BME280;54767;53.800;15.956;2023-02-01T09:18:45;99011.49;;;3.76;81.00
67987;BME280;54767;53.800;15.956;2023-02-01T09:21:29;99014.80;;;3.77;81.17
67987;BME280;54767;53.800;15.956;2023-02-01T09:23:57;99011.35;;;3.77;80.93
67987;BME280;54767;53.800;15.956;2023-02-01T09:26:26;99010.30;;;3.78;81.00
67987;BME280;54767;53.800;15.956;2023-02-01T09:28:59;99000.27;;;3.78;81.27
67987;BME280;54767;53.800;15.956;2023-02-01T09:31:29;99000.77;;;3.78;81.24
67987;BME280;54767;53.800;15.956;2023-02-01T09:33:58;99003.25;;;3.81;81.30
67987;BME280;54767;53.800;15.956;2023-02-01T09:36:26;99001.55;;;3.84;81.22
67987;BME280;54767;53.800;15.956;2023-02-01T09:38:59;98997.75;;;3.86;80.94
67987;BME280;54767;53.800;15.956;2023-02-01T09:44:36;98990.34;;;3.90;81.06
67987;BME280;54767;53.800;15.956;2023-02-01T09:47:13;98991.02;;;3.89;80.96
67987;BME280;54767;53.800;15.956;2023-02-01T09:52:52;98980.98;;;3.90;81.07
67987;BME280;54767;53.800;15.956;2023-02-01T09:55:45;98981.35;;;3.93;81.47
67987;BME280;54767;53.800;15.956;2023-02-01T09:58:36;98976.18;;;3.96;81.01
67987;BME280;54767;53.800;15.956;2023-02-01T10:01:09;98976.03;;;3.97;80.80
67987;BME280;54767;53.800;15.956;2023-02-01T10:03:40;98971.36;;;3.98;80.94
67987;BME280;54767;53.800;15.956;2023-02-01T10:09:16;98980.52;;;3.95;81.20
67987;BME280;54767;53.800;15.956;2023-02-01T10:22:09;98978.10;;;3.96;81.25
67987;BME280;54767;53.800;15.956;2023-02-01T10:24:41;98976.21;;;3.98;81.76
67987;BME280;54767;53.800;15.956;2023-02-01T10:29:41;98973.29;;;3.99;81.65
67987;BME280;54767;53.800;15.956;2023-02-01T10:32:18;98982.97;;;3.99;81.58
67987;BME280;54767;53.800;15.956;2023-02-01T10:34:59;98982.96;;;3.99;81.70
67987;BME280;54767;53.800;15.956;2023-02-01T10:37:33;98981.25;;;3.99;81.43
67987;BME280;54767;53.800;15.956;2023-02-01T10:40:16;98983.84;;;3.98;81.34
67987;BME280;54767;53.800;15.956;2023-02-01T10:42:45;98989.20;;;3.98;81.51
67987;BME280;54767;53.800;15.956;2023-02-01T10:45:20;98984.19;;;4.01;81.76
67987;BME280;54767;53.800;15.956;2023-02-01T10:47:51;98976.58;;;4.00;81.57
67987;BME280;54767;53.800;15.956;2023-02-01T10:50:37;98982.81;;;4.00;81.28
67987;BME280;54767;53.800;15.956;2023-02-01T10:53:12;98989.02;;;3.98;81.74
67987;BME280;54767;53.800;15.956;2023-02-01T10:55:48;98982.78;;;3.97;81.68
67987;BME280;54767;53.800;15.956;2023-02-01T10:58:20;98991.94;;;3.96;81.91
67987;BME280;54767;53.800;15.956;2023-02-01T11:01:07;98991.07;;;3.96;81.79
67987;BME280;54767;53.800;15.956;2023-02-01T11:03:39;98992.63;;;3.96;81.61
67987;BME280;54767;53.800;15.956;2023-02-01T11:06:27;98993.17;;;3.98;81.71
67987;BME280;54767;53.800;15.956;2023-02-01T11:08:58;98998.21;;;4.00;81.53
67987;BME280;54767;53.800;15.956;2023-02-01T11:11:28;98995.81;;;4.03;81.65
67987;BME280;54767;53.800;15.956;2023-02-01T11:14:13;98996.67;;;4.04;82.00
67987;BME280;54767;53.800;15.956;2023-02-01T11:16:47;98987.00;;;4.05;81.65
67987;BME280;54767;53.800;15.956;2023-02-01T11:19:17;98990.97;;;4.04;81.88
67987;BME280;54767;53.800;15.956;2023-02-01T11:21:50;98991.51;;;4.05;81.72
67987;BME280;54767;53.800;15.956;2023-02-01T11:24:27;98993.77;;;4.08;81.93
67987;BME280;54767;53.800;15.956;2023-02-01T11:26:59;98993.97;;;4.11;81.48
67987;BME280;54767;53.800;15.956;2023-02-01T11:29:50;98990.17;;;4.13;81.58
67987;BME280;54767;53.800;15.956;2023-02-01T11:32:20;98992.95;;;4.15;81.49
67987;BME280;54767;53.800;15.956;2023-02-01T11:35:02;98992.79;;;4.15;81.63
67987;BME280;54767;53.800;15.956;2023-02-01T11:37:37;98988.98;;;4.15;81.25
67987;BME280;54767;53.800;15.956;2023-02-01T11:45:30;98990.20;;;4.15;81.42
67987;BME280;54767;53.800;15.956;2023-02-01T11:47:59;98989.84;;;4.16;81.69
67987;BME280;54767;53.800;15.956;2023-02-01T11:51:21;98990.88;;;4.16;81.46
67987;BME280;54767;53.800;15.956;2023-02-01T12:07:16;98997.98;;;4.14;81.29
67987;BME280;54767;53.800;15.956;2023-02-01T12:10:03;98990.89;;;4.15;81.31
67987;BME280;54767;53.800;15.956;2023-02-01T12:22:21;98989.30;;;4.14;80.99
67987;BME280;54767;53.800;15.956;2023-02-01T12:41:06;98981.60;;;4.23;80.89
67987;BME280;54767;53.800;15.956;2023-02-01T12:43:50;98977.95;;;4.21;80.85
67987;BME280;54767;53.800;15.956;2023-02-01T12:46:29;98980.19;;;4.21;80.80
67987;BME280;54767;53.800;15.956;2023-02-01T12:49:15;98979.33;;;4.21;80.96
67987;BME280;54767;53.800;15.956;2023-02-01T12:51:48;98973.61;;;4.20;80.60
67987;BME280;54767;53.800;15.956;2023-02-01T12:54:32;98973.63;;;4.21;80.69
67987;BME280;54767;53.800;15.956;2023-02-01T12:58:14;98977.96;;;4.22;80.52
67987;BME280;54767;53.800;15.956;2023-02-01T13:00:51;98974.67;;;4.24;80.86
67987;BME280;54767;53.800;15.956;2023-02-01T13:03:40;98970.71;;;4.26;80.91
67987;BME280;54767;53.800;15.956;2023-02-01T13:06:17;98965.02;;;4.29;81.12
67987;BME280;54767;53.800;15.956;2023-02-01T13:11:48;98961.94;;;4.35;80.35
67987;BME280;54767;53.800;15.956;2023-02-01T13:14:52;98958.46;;;4.36;80.55
67987;BME280;54767;53.800;15.956;2023-02-01T13:17:43;98959.86;;;4.37;80.51
67987;BME280;54767;53.800;15.956;2023-02-01T13:20:42;98962.63;;;4.35;80.60
67987;BME280;54767;53.800;15.956;2023-02-01T13:27:05;98966.25;;;4.33;80.32
67987;BME280;54767;53.800;15.956;2023-02-01T13:30:06;98961.05;;;4.33;80.41
67987;BME280;54767;53.800;15.956;2023-02-01T13:33:18;98958.81;;;4.34;80.65
67987;BME280;54767;53.800;15.956;2023-02-01T13:43:28;98967.98;;;4.34;80.44
67987;BME280;54767;53.800;15.956;2023-02-01T13:46:05;98972.50;;;4.35;80.24
67987;BME280;54767;53.800;15.956;2023-02-01T13:48:52;98973.72;;;4.37;80.16
67987;BME280;54767;53.800;15.956;2023-02-01T13:54:04;98980.67;;;4.40;79.80
67987;BME280;54767;53.800;15.956;2023-02-01T13:56:41;98978.59;;;4.39;80.23
67987;BME280;54767;53.800;15.956;2023-02-01T14:12:47;98974.75;;;4.36;79.85
67987;BME280;54767;53.800;15.956;2023-02-01T14:15:28;98973.01;;;4.34;80.16
67987;BME280;54767;53.800;15.956;2023-02-01T14:21:22;98974.38;;;4.29;79.64
67987;BME280;54767;53.800;15.956;2023-02-01T14:24:25;98979.20;;;4.28;79.69
67987;BME280;54767;53.800;15.956;2023-02-01T14:32:21;98977.98;;;4.26;79.93
67987;BME280;54767;53.800;15.956;2023-02-01T14:35:25;98980.39;;;4.24;79.86
67987;BME280;54767;53.800;15.956;2023-02-01T14:38:12;98987.47;;;4.21;79.90
67987;BME280;54767;53.800;15.956;2023-02-01T14:41:33;98983.30;;;4.19;80.12
67987;BME280;54767;53.800;15.956;2023-02-01T14:50:47;98981.77;;;4.25;79.82
67987;BME280;54767;53.800;15.956;2023-02-01T14:53:39;98983.16;;;4.23;79.68
67987;BME280;54767;53.800;15.956;2023-02-01T14:57:02;98979.49;;;4.20;79.92
67987;BME280;54767;53.800;15.956;2023-02-01T14:59:39;98983.48;;;4.22;80.00
67987;BME280;54767;53.800;15.956;2023-02-01T15:02:21;98981.26;;;4.24;79.67
67987;BME280;54767;53.800;15.956;2023-02-01T15:12:40;98975.66;;;4.17;79.30
67987;BME280;54767;53.800;15.956;2023-02-01T15:15:22;98976.34;;;4.14;79.78
67987;BME280;54767;53.800;15.956;2023-02-01T15:25:47;98963.98;;;4.07;79.17
67987;BME280;54767;53.800;15.956;2023-02-01T15:28:16;98958.25;;;4.04;79.19
67987;BME280;54767;53.800;15.956;2023-02-01T15:31:14;98966.38;;;4.01;79.10
67987;BME280;54767;53.800;15.956;2023-02-01T15:38:37;98959.05;;;3.94;79.59
67987;BME280;54767;53.800;15.956;2023-02-01T15:41:50;98953.35;;;3.97;79.05
67987;BME280;54767;53.800;15.956;2023-02-01T15:44:31;98950.74;;;3.95;79.05
67987;BME280;54767;53.800;15.956;2023-02-01T15:47:13;98949.52;;;3.94;79.33
67987;BME280;54767;53.800;15.956;2023-02-01T15:49:46;98951.75;;;3.92;79.05
67987;BME280;54767;53.800;15.956;2023-02-01T15:52:39;98952.08;;;3.88;78.98
67987;BME280;54767;53.800;15.956;2023-02-01T15:57:51;98945.10;;;3.81;79.16
67987;BME280;54767;53.800;15.956;2023-02-01T16:00:29;98944.05;;;3.81;79.34
67987;BME280;54767;53.800;15.956;2023-02-01T16:03:05;98932.43;;;3.78;79.22
67987;BME280;54767;53.800;15.956;2023-02-01T16:05:56;98932.94;;;3.76;79.41
67987;BME280;54767;53.800;15.956;2023-02-01T16:08:27;98931.21;;;3.75;79.33
67987;BME280;54767;53.800;15.956;2023-02-01T16:11:22;98930.15;;;3.73;79.25
67987;BME280;54767;53.800;15.956;2023-02-01T16:13:49;98926.31;;;3.70;79.56
67987;BME280;54767;53.800;15.956;2023-02-01T16:16:19;98927.68;;;3.70;79.55
67987;BME280;54767;53.800;15.956;2023-02-01T16:18:48;98926.13;;;3.68;79.42
67987;BME280;54767;53.800;15.956;2023-02-01T16:21:16;98921.10;;;3.67;79.54